Time;durP1;ratioP1;P1;durP2;ratioP2;P2;SDS_P1;SDS_P2;PMS_P1;PMS_P2;Temp;Humidity;BMP_temperature;BMP_pressure;BME280_temperature;BME280_humidity;BME280_pressure;Samples;Min_cycle;Max_cycle;Signal;HPM_P1;HPM_P2
2021/11/09 00:01:57;;;;;;;20.55;6.20;;;5.90;99.90;;;;;;5032163;28;20029;-76
2021/11/09 00:04:28;;;;;;;16.55;6.35;;;5.90;99.90;;;;;;5031480;28;20032;-76
2021/11/09 00:07:12;;;;;;;22.40;7.03;;;5.90;99.90;;;;;;5032756;28;20072;-75
2021/11/09 00:09:57;;;;;;;15.20;6.63;;;5.90;99.90;;;;;;5031921;28;20100;-76
2021/11/09 00:12:53;;;;;;;24.40;6.63;;;5.90;99.90;;;;;;5031392;28;20109;-76
2021/11/09 00:15:22;;;;;;;22.75;6.88;;;5.80;99.90;;;;;;5031364;28;20049;-76
2021/11/09 00:17:56;;;;;;;14.65;6.25;;;5.80;99.90;;;;;;5032709;28;20385;-77
2021/11/09 00:20:25;;;;;;;16.27;5.93;;;5.80;99.90;;;;;;5031644;28;20022;-76
2021/11/09 00:22:52;;;;;;;22.20;6.72;;;5.80;99.90;;;;;;5032776;28;20133;-77
2021/11/09 00:25:19;;;;;;;17.63;7.15;;;5.70;99.90;;;;;;5032176;28;20037;-77
2021/11/09 00:27:45;;;;;;;27.35;7.20;;;5.80;99.90;;;;;;5031363;28;20014;-76
2021/11/09 00:30:14;;;;;;;20.55;7.80;;;5.70;99.90;;;;;;5032136;28;20033;-76
2021/11/09 00:32:43;;;;;;;20.85;6.35;;;5.70;99.90;;;;;;5031197;28;20025;-76
2021/11/09 00:35:13;;;;;;;20.33;7.07;;;5.80;99.90;;;;;;5031835;28;20085;-77
2021/11/09 00:37:40;;;;;;;25.08;7.53;;;5.70;99.90;;;;;;5031312;28;21010;-77
2021/11/09 00:40:08;;;;;;;20.40;5.95;;;5.70;99.90;;;;;;5031334;28;20460;-77
2021/11/09 00:42:33;;;;;;;18.58;6.47;;;5.60;99.90;;;;;;5032395;28;20026;-75
2021/11/09 00:44:59;;;;;;;22.63;6.25;;;5.60;99.90;;;;;;5032033;28;20058;-76
2021/11/09 00:47:25;;;;;;;24.38;7.53;;;5.60;99.90;;;;;;5030904;28;20063;-76
2021/11/09 00:49:51;;;;;;;10.93;6.13;;;5.60;99.90;;;;;;5032084;28;20489;-76
2021/11/09 00:52:17;;;;;;;18.55;6.75;;;5.60;99.90;;;;;;5031885;28;20057;-78
2021/11/09 00:54:42;;;;;;;21.38;8.00;;;5.60;99.90;;;;;;5031254;28;20024;-76
2021/11/09 00:57:08;;;;;;;20.10;5.90;;;5.60;99.90;;;;;;5032210;28;20030;-77
2021/11/09 00:59:34;;;;;;;19.38;6.22;;;5.60;99.90;;;;;;5031608;28;20017;-75
2021/11/09 01:02:00;;;;;;;29.15;8.00;;;5.60;99.90;;;;;;5031048;28;20164;-76
2021/11/09 01:04:27;;;;;;;19.80;6.15;;;5.60;99.90;;;;;;5034200;28;20171;-76
2021/11/09 01:06:53;;;;;;;18.10;6.45;;;5.50;99.90;;;;;;5035179;28;20037;-76
2021/11/09 01:09:19;;;;;;;25.05;7.15;;;5.50;99.90;;;;;;5035211;28;20029;-76
2021/11/09 01:11:44;;;;;;;27.90;8.15;;;5.50;99.90;;;;;;5035485;28;20100;-77
2021/11/09 01:14:11;;;;;;;23.08;6.70;;;5.50;99.90;;;;;;5035424;28;20021;-76
2021/11/09 01:16:36;;;;;;;17.88;6.05;;;5.50;99.90;;;;;;5033892;28;20036;-76
2021/11/09 01:19:05;;;;;;;23.98;6.28;;;5.50;99.90;;;;;;5035318;28;20025;-76
2021/11/09 01:21:32;;;;;;;21.10;7.20;;;5.50;99.90;;;;;;5034826;28;20037;-76
2021/11/09 01:23:59;;;;;;;21.27;6.30;;;5.60;99.90;;;;;;5020096;28;20029;-77
2021/11/09 01:26:25;;;;;;;18.70;6.57;;;5.50;99.90;;;;;;5034683;28;20034;-76
2021/11/09 01:28:53;;;;;;;34.20;7.05;;;5.50;99.90;;;;;;5034197;28;20100;-76
2021/11/09 01:31:20;;;;;;;21.75;6.20;;;5.50;99.90;;;;;;5035291;28;20026;-76
2021/11/09 01:33:46;;;;;;;18.75;6.60;;;5.50;99.90;;;;;;5034545;28;20037;-76
2021/11/09 01:36:12;;;;;;;19.02;6.43;;;5.50;99.90;;;;;;5034336;28;20040;-75
2021/11/09 01:38:38;;;;;;;25.63;6.70;;;5.40;99.90;;;;;;5034977;28;20054;-75
2021/11/09 01:41:05;;;;;;;20.25;7.75;;;6.30;99.90;;;;;;5035023;28;20481;-76
2021/11/09 01:43:32;;;;;;;24.80;7.35;;;5.40;99.90;;;;;;5033980;28;20026;-77
2021/11/09 01:45:58;;;;;;;23.92;6.90;;;5.40;99.90;;;;;;5030708;28;20026;-75
2021/11/09 01:48:25;;;;;;;21.98;6.40;;;5.40;99.90;;;;;;5024733;28;20026;-78
2021/11/09 01:50:56;;;;;;;14.77;6.75;;;5.30;99.90;;;;;;5034298;28;20026;-76
2021/11/09 01:53:22;;;;;;;25.17;6.95;;;5.40;99.90;;;;;;5033927;28;20032;-77
2021/11/09 01:55:48;;;;;;;25.55;7.05;;;5.40;99.90;;;;;;5034746;28;20022;-75
2021/11/09 01:58:15;;;;;;;23.15;7.95;;;5.30;99.90;;;;;;5035586;28;20030;-74
2021/11/09 02:00:51;;;;;;;25.90;6.80;;;5.30;99.90;;;;;;5044237;28;20431;-77
2021/11/09 02:03:18;;;;;;;27.00;7.43;;;5.30;99.90;;;;;;5023475;28;20055;-75
2021/11/09 02:05:44;;;;;;;22.60;7.15;;;5.40;99.90;;;;;;5033470;28;20091;-76
2021/11/09 02:08:10;;;;;;;22.33;8.35;;;5.30;99.90;;;;;;5034421;28;20462;-76
2021/11/09 02:10:38;;;;;;;32.05;8.82;;;5.30;99.90;;;;;;5034170;28;20021;-77
2021/11/09 02:13:04;;;;;;;22.30;7.78;;;5.30;99.90;;;;;;5033290;28;20032;-75
2021/11/09 02:15:34;;;;;;;23.27;6.68;;;5.30;99.90;;;;;;5034215;28;20021;-75
2021/11/09 02:18:00;;;;;;;25.83;7.53;;;5.30;99.90;;;;;;5034085;28;20477;-76
2021/11/09 02:20:28;;;;;;;17.15;6.82;;;5.30;99.90;;;;;;5033042;28;20033;-76
2021/11/09 02:22:55;;;;;;;27.38;7.32;;;5.30;99.90;;;;;;5034684;28;20057;-77
2021/11/09 02:25:23;;;;;;;20.98;7.22;;;5.30;99.90;;;;;;5033062;28;20470;-75
2021/11/09 02:27:50;;;;;;;22.10;6.97;;;5.30;99.90;;;;;;5033983;28;20029;-77
2021/11/09 02:30:19;;;;;;;25.48;7.78;;;5.30;99.90;;;;;;5034007;28;20071;-76
2021/11/09 02:32:45;;;;;;;18.80;7.15;;;5.30;99.90;;;;;;5033139;28;20030;-75
2021/11/09 02:35:13;;;;;;;22.08;6.85;;;5.30;99.90;;;;;;5033595;28;20386;-77
2021/11/09 02:37:40;;;;;;;24.60;6.50;;;5.30;99.90;;;;;;5033023;28;20045;-75
2021/11/09 02:40:10;;;;;;;20.40;6.30;;;5.20;99.90;;;;;;5032489;28;20037;-75
2021/11/09 02:42:42;;;;;;;18.48;6.78;;;5.20;99.90;;;;;;5031379;28;20022;-76
2021/11/09 02:45:16;;;;;;;21.00;6.35;;;5.20;99.90;;;;;;5033761;28;20046;-77
2021/11/09 02:47:58;;;;;;;19.08;6.68;;;5.20;99.90;;;;;;5032228;28;20022;-77
2021/11/09 02:50:28;;;;;;;27.48;7.45;;;5.10;99.90;;;;;;5032999;28;20026;-75
2021/11/09 02:53:25;;;;;;;18.55;7.40;;;5.10;99.90;;;;;;5032955;28;20025;-75
2021/11/09 02:55:54;;;;;;;22.60;6.85;;;5.10;99.90;;;;;;5032158;28;20383;-76
2021/11/09 03:03:44;;;;;;;22.50;6.05;;;5.10;99.90;;;;;;5032714;28;20113;-76
2021/11/09 03:06:24;;;;;;;28.70;6.45;;;5.10;99.90;;;;;;5032338;28;20033;-76
2021/11/09 03:11:31;;;;;;;16.25;6.07;;;5.00;99.90;;;;;;5031015;28;20032;-76
2021/11/09 03:13:58;;;;;;;18.83;6.80;;;5.00;99.90;;;;;;5032857;28;20497;-77
2021/11/09 03:16:30;;;;;;;20.58;6.80;;;5.00;99.90;;;;;;5031986;28;20038;-76
2021/11/09 03:46:45;;;;;;;19.35;7.82;;;4.90;99.90;;;;;;5031026;28;20028;-74
2021/11/09 03:49:12;;;;;;;32.35;8.55;;;4.90;99.90;;;;;;5031883;28;20366;-75
2021/11/09 03:51:38;;;;;;;20.58;8.65;;;4.90;99.90;;;;;;5032140;28;20025;-79
2021/11/09 03:54:10;;;;;;;22.40;7.50;;;4.90;99.90;;;;;;5032279;28;20025;-77
2021/11/09 03:59:13;;;;;;;23.63;8.23;;;4.80;99.90;;;;;;5032219;28;20374;-77
2021/11/09 04:02:28;;;;;;;23.60;9.77;;;4.70;99.90;;;;;;5031867;28;20702;-78
2021/11/09 04:04:39;;;;;;;17.33;8.48;;;4.80;99.90;;;;;;5022714;28;20041;-75
2021/11/09 04:07:16;;;;;;;26.25;8.40;;;4.70;99.90;;;;;;5032061;28;20501;-76
2021/11/09 04:15:27;;;;;;;16.48;8.02;;;4.70;99.90;;;;;;5019506;28;20124;-77
2021/11/09 04:29:01;;;;;;;26.63;9.00;;;4.60;99.90;;;;;;5032251;28;20095;-77
2021/11/09 04:52:40;;;;;;;22.90;9.60;;;4.50;99.90;;;;;;5035541;28;20120;-77
2021/11/09 05:11:32;;;;;;;23.88;9.85;;;4.60;99.90;;;;;;5035238;28;20036;-78
2021/11/09 05:13:58;;;;;;;31.90;10.80;;;4.60;99.90;;;;;;5035940;28;20484;-76
2021/11/09 05:16:23;;;;;;;27.02;9.50;;;4.60;99.90;;;;;;5034840;28;20013;-76
2021/11/09 05:18:49;;;;;;;30.27;10.60;;;4.60;99.90;;;;;;5035249;28;20516;-77
2021/11/09 05:21:14;;;;;;;25.63;10.55;;;4.60;99.90;;;;;;5034539;28;20369;-77
2021/11/09 05:23:40;;;;;;;38.35;13.27;;;4.60;99.90;;;;;;5034910;28;20095;-77
2021/11/09 05:26:06;;;;;;;25.73;11.30;;;4.60;99.90;;;;;;5035064;28;20044;-77
2021/11/09 05:28:32;;;;;;;30.70;11.80;;;4.60;99.90;;;;;;5034045;28;20017;-77
2021/11/09 05:30:58;;;;;;;39.00;10.48;;;4.60;99.90;;;;;;5034851;28;20481;-77
2021/11/09 05:33:23;;;;;;;25.33;11.00;;;4.60;99.90;;;;;;5034601;28;20022;-76
2021/11/09 05:35:51;;;;;;;18.92;9.43;;;4.60;99.90;;;;;;5033891;28;20116;-76
2021/11/09 05:38:24;;;;;;;23.35;10.30;;;4.60;99.90;;;;;;5036544;28;20041;-77
2021/11/09 05:40:55;;;;;;;29.08;11.80;;;4.60;99.90;;;;;;5034526;28;20033;-77
2021/11/09 05:43:21;;;;;;;32.63;11.23;;;4.60;99.90;;;;;;5033759;28;20017;-76
2021/11/09 05:45:46;;;;;;;28.90;10.55;;;4.60;99.90;;;;;;5034453;28;20036;-76
2021/11/09 05:48:12;;;;;;;27.23;11.60;;;4.60;99.90;;;;;;5035001;28;20053;-79
2021/11/09 05:50:37;;;;;;;34.15;10.70;;;4.60;99.90;;;;;;5032236;28;20029;-76
2021/11/09 05:53:03;;;;;;;29.73;10.65;;;4.60;99.90;;;;;;5035023;28;20018;-78
2021/11/09 05:55:31;;;;;;;23.70;10.00;;;4.60;99.90;;;;;;5034300;28;20029;-76
2021/11/09 05:57:57;;;;;;;28.23;10.52;;;4.50;99.90;;;;;;5032765;28;20033;-76
2021/11/09 06:00:23;;;;;;;34.33;11.63;;;4.60;99.90;;;;;;5034025;28;20333;-77
2021/11/09 06:02:51;;;;;;;31.98;11.55;;;4.60;99.90;;;;;;5034178;28;20021;-77
2021/11/09 06:05:16;;;;;;;32.17;11.52;;;4.70;99.90;;;;;;5033382;28;20042;-78
2021/11/09 06:07:42;;;;;;;33.90;12.07;;;4.70;99.90;;;;;;5033650;28;20029;-77
2021/11/09 06:10:08;;;;;;;33.50;10.80;;;4.80;99.90;;;;;;5034192;28;20028;-77
2021/11/09 06:12:34;;;;;;;31.90;11.68;;;4.90;99.90;;;;;;5033079;28;20097;-76
2021/11/09 06:15:00;;;;;;;26.20;12.73;;;4.90;99.90;;;;;;5033012;28;20029;-75
2021/11/09 06:17:26;;;;;;;22.63;10.32;;;4.90;99.90;;;;;;5033024;28;20029;-77
2021/11/09 06:19:51;;;;;;;28.83;10.27;;;4.90;99.90;;;;;;5033861;28;20045;-78
2021/11/09 06:22:17;;;;;;;29.58;10.30;;;4.90;99.90;;;;;;5033692;28;20040;-77
2021/11/09 06:24:42;;;;;;;34.47;12.02;;;5.00;99.90;;;;;;5032553;28;20108;-76
2021/11/09 06:27:08;;;;;;;28.50;10.93;;;5.00;99.90;;;;;;5034105;28;20473;-77
2021/11/09 06:29:36;;;;;;;29.55;10.65;;;5.00;99.90;;;;;;5033761;28;20025;-75
2021/11/09 06:32:02;;;;;;;27.33;10.48;;;5.10;99.90;;;;;;5033582;28;20122;-74
2021/11/09 06:34:28;;;;;;;23.92;10.35;;;5.00;99.90;;;;;;5032856;28;20021;-76
2021/11/09 06:36:53;;;;;;;29.40;10.80;;;5.00;99.90;;;;;;5032983;28;20056;-78
2021/11/09 06:39:19;;;;;;;31.95;11.20;;;5.00;99.90;;;;;;5031666;28;20452;-77
2021/11/09 06:41:45;;;;;;;38.67;12.25;;;5.00;99.90;;;;;;5032511;28;20489;-77
2021/11/09 06:44:11;;;;;;;27.30;11.75;;;5.00;99.90;;;;;;5031833;28;20018;-76
2021/11/09 06:46:36;;;;;;;41.03;11.95;;;5.10;99.90;;;;;;5030677;28;20491;-77
2021/11/09 06:49:02;;;;;;;31.02;12.65;;;5.10;99.90;;;;;;5033128;28;20022;-78
2021/11/09 06:51:28;;;;;;;37.65;12.80;;;5.20;99.90;;;;;;5033097;28;20022;-78
2021/11/09 06:53:54;;;;;;;44.47;12.35;;;5.30;99.90;;;;;;5031932;28;20032;-77
2021/11/09 06:56:19;;;;;;;29.77;10.88;;;5.40;99.90;;;;;;5031875;28;20025;-78
2021/11/09 06:58:46;;;;;;;34.63;10.82;;;5.40;99.90;;;;;;5032320;28;20021;-77
2021/11/09 07:01:11;;;;;;;34.83;11.52;;;5.50;99.90;;;;;;5031843;28;20040;-77
2021/11/09 07:03:38;;;;;;;35.85;11.60;;;6.60;99.90;;;;;;5032551;28;20021;-76
2021/11/09 07:06:06;;;;;;;28.05;11.70;;;5.60;99.90;;;;;;5031963;28;20033;-77
2021/11/09 07:08:32;;;;;;;21.13;11.70;;;5.60;99.90;;;;;;5031407;28;20021;-77
2021/11/09 07:10:59;;;;;;;29.05;10.98;;;5.70;99.90;;;;;;5029641;28;20108;-78
2021/11/09 07:13:25;;;;;;;26.65;10.90;;;5.70;99.90;;;;;;5032134;28;20021;-78
2021/11/09 07:15:51;;;;;;;23.52;10.40;;;5.80;99.90;;;;;;5032124;28;20543;-77
2021/11/09 07:18:17;;;;;;;35.63;10.98;;;5.80;99.90;;;;;;5032102;28;20389;-76
2021/11/09 07:20:43;;;;;;;33.67;10.88;;;5.90;99.90;;;;;;5031357;28;20461;-77
2021/11/09 07:23:08;;;;;;;24.33;10.23;;;5.90;99.90;;;;;;5031718;28;20533;-77
2021/11/09 07:25:34;;;;;;;25.92;11.20;;;6.00;99.90;;;;;;5031560;28;20033;-78
2021/11/09 07:28:00;;;;;;;26.23;10.15;;;6.00;99.90;;;;;;5031364;28;20022;-77
2021/11/09 07:30:30;;;;;;;27.88;11.38;;;6.00;99.90;;;;;;5031847;28;20021;-77
2021/11/09 07:32:56;;;;;;;22.95;10.00;;;6.10;99.90;;;;;;5031599;28;20021;-77
2021/11/09 07:35:24;;;;;;;28.80;11.07;;;6.20;99.90;;;;;;5030629;28;20033;-76
2021/11/09 07:37:50;;;;;;;32.20;10.90;;;6.30;99.90;;;;;;5031369;28;20038;-77
2021/11/09 07:40:16;;;;;;;24.98;10.73;;;6.30;99.90;;;;;;5031112;28;20028;-77
2021/11/09 07:42:48;;;;;;;34.88;11.65;;;6.40;99.90;;;;;;5029988;28;20489;-77
2021/11/09 07:45:19;;;;;;;41.28;10.48;;;6.40;99.90;;;;;;5029493;28;20038;-78
2021/11/09 07:47:45;;;;;;;26.58;10.13;;;6.60;99.90;;;;;;5028794;28;20025;-77
2021/11/09 07:50:11;;;;;;;27.98;10.18;;;6.60;99.90;;;;;;5028808;28;20481;-77
2021/11/09 07:52:37;;;;;;;25.38;9.80;;;6.70;99.90;;;;;;5029056;28;20030;-75
2021/11/09 07:55:06;;;;;;;23.17;10.65;;;6.70;99.90;;;;;;5031202;28;20036;-76
2021/11/09 07:57:42;;;;;;;29.55;10.32;;;6.80;99.90;;;;;;5030631;28;20535;-77
2021/11/09 08:00:26;;;;;;;37.17;11.32;;;6.90;99.90;;;;;;5030084;28;20068;-76
2021/11/09 08:03:07;;;;;;;27.95;10.32;;;6.90;99.90;;;;;;5030171;28;20021;-77
2021/11/09 08:05:55;;;;;;;30.27;10.45;;;7.00;99.90;;;;;;5030243;28;20037;-77
2021/11/09 08:08:28;;;;;;;30.77;11.52;;;7.00;99.90;;;;;;5028558;28;20036;-77
2021/11/09 08:10:54;;;;;;;24.67;9.80;;;7.10;99.90;;;;;;5031097;28;20056;-77
2021/11/09 08:13:20;;;;;;;29.25;9.73;;;7.20;99.90;;;;;;5034253;28;20017;-77
2021/11/09 08:15:46;;;;;;;34.90;10.00;;;7.20;99.90;;;;;;5037807;28;20018;-77
2021/11/09 08:18:15;;;;;;;23.20;9.27;;;7.30;99.90;;;;;;5037113;28;20381;-78
2021/11/09 08:20:41;;;;;;;31.48;11.10;;;7.50;99.90;;;;;;5038779;28;20021;-79
2021/11/09 08:23:07;;;;;;;28.23;10.10;;;7.40;99.90;;;;;;5038591;28;20026;-78
2021/11/09 08:25:33;;;;;;;26.60;9.13;;;7.50;99.90;;;;;;5037753;28;20037;-79
2021/11/09 08:28:01;;;;;;;28.73;9.93;;;7.60;99.90;;;;;;5038989;28;20029;-79
2021/11/09 08:30:27;;;;;;;26.83;9.13;;;7.60;99.90;;;;;;5038784;28;20447;-79
2021/11/09 08:32:53;;;;;;;28.30;10.93;;;7.70;99.90;;;;;;5038356;28;20022;-76
2021/11/09 08:35:22;;;;;;;27.55;9.98;;;7.80;99.90;;;;;;5037757;28;20025;-77
2021/11/09 08:37:51;;;;;;;27.30;9.98;;;7.80;99.90;;;;;;5037545;28;20490;-76
2021/11/09 08:40:19;;;;;;;27.23;9.32;;;7.90;99.90;;;;;;5037654;28;20029;-77
2021/11/09 08:42:49;;;;;;;30.63;9.65;;;8.00;99.90;;;;;;5039606;28;20014;-77
2021/11/09 08:45:26;;;;;;;29.15;9.75;;;8.00;99.90;;;;;;5038225;28;20076;-78
2021/11/09 08:47:55;;;;;;;34.42;10.57;;;8.10;99.90;;;;;;5038880;28;20031;-76
2021/11/09 08:50:24;;;;;;;28.20;9.57;;;8.20;99.90;;;;;;5039131;28;20025;-77
2021/11/09 08:52:51;;;;;;;21.77;9.30;;;8.30;99.90;;;;;;5039340;28;20092;-80
2021/11/09 08:55:42;;;;;;;33.85;9.45;;;8.30;99.90;;;;;;5040826;28;20029;-78
2021/11/09 09:06:03;;;;;;;25.75;10.02;;;8.40;99.90;;;;;;5037991;28;20040;-76
2021/11/09 09:08:31;;;;;;;23.25;9.23;;;8.50;99.90;;;;;;5039120;28;20029;-77
2021/11/09 09:10:56;;;;;;;30.85;9.27;;;8.50;99.90;;;;;;5038693;28;20068;-74
2021/11/09 09:13:22;;;;;;;25.85;10.20;;;8.60;99.90;;;;;;5039709;28;20126;-77
2021/11/09 09:15:48;;;;;;;21.80;8.90;;;8.60;99.90;;;;;;5027380;28;20092;-78
2021/11/09 09:18:17;;;;;;;32.72;10.05;;;8.70;99.90;;;;;;5031552;28;20091;-77
2021/11/09 09:21:07;;;;;;;30.02;9.65;;;8.80;99.90;;;;;;5030931;28;20057;-76
2021/11/09 09:23:33;;;;;;;33.70;11.85;;;8.70;99.90;;;;;;5029215;28;20128;-76
2021/11/09 09:29:06;;;;;;;29.08;10.00;;;8.90;99.90;;;;;;5020099;28;20450;-77
2021/11/09 09:56:15;;;;;;;24.88;9.85;;;9.40;99.90;;;;;;5024717;28;20084;-77
2021/11/09 09:58:40;;;;;;;31.35;9.95;;;9.50;99.90;;;;;;5027206;28;20033;-72
2021/11/09 10:01:06;;;;;;;30.75;10.70;;;9.50;99.90;;;;;;5031385;28;20047;-74
2021/11/09 10:03:42;;;;;;;32.08;10.75;;;9.60;99.90;;;;;;5021719;28;20551;-74
2021/11/09 10:06:08;;;;;;;41.53;12.07;;;9.60;99.90;;;;;;5020168;28;20121;-75
2021/11/09 10:08:50;;;;;;;31.50;9.80;;;9.70;99.90;;;;;;5028206;28;20079;-74
2021/11/09 10:11:38;;;;;;;33.70;11.07;;;9.70;99.90;;;;;;5027537;28;20390;-73
2021/11/09 10:14:06;;;;;;;25.02;9.60;;;9.70;99.90;;;;;;5019529;28;20028;-73
2021/11/09 10:16:38;;;;;;;21.30;9.95;;;9.80;99.90;;;;;;5014370;28;20057;-74
2021/11/09 10:19:04;;;;;;;24.83;9.63;;;9.90;99.90;;;;;;5017132;28;20029;-75
2021/11/09 10:21:35;;;;;;;24.55;9.95;;;9.90;99.90;;;;;;5023913;28;20462;-75
2021/11/09 10:24:01;;;;;;;26.77;9.45;;;9.90;99.90;;;;;;5018341;28;20052;-73
2021/11/09 10:26:27;;;;;;;24.85;9.55;;;10.00;99.90;;;;;;5023581;28;20501;-74
2021/11/09 10:28:53;;;;;;;31.15;9.52;;;10.00;99.90;;;;;;5019067;28;20026;-75
2021/11/09 10:31:18;;;;;;;28.33;9.05;;;10.50;99.90;;;;;;5020207;28;20096;-74
2021/11/09 10:33:51;;;;;;;30.00;10.02;;;10.20;99.90;;;;;;5022497;28;20028;-76
2021/11/09 10:36:21;;;;;;;30.92;11.05;;;10.20;99.90;;;;;;5014789;28;20084;-74
2021/11/09 10:38:48;;;;;;;30.55;9.98;;;10.30;99.90;;;;;;5024678;28;20052;-74
2021/11/09 10:41:14;;;;;;;32.90;10.38;;;10.30;99.90;;;;;;5023236;28;20049;-75
2021/11/09 10:43:40;;;;;;;22.35;8.55;;;10.30;99.90;;;;;;5028037;28;20037;-74
2021/11/09 10:46:06;;;;;;;27.27;9.50;;;10.30;99.90;;;;;;5019651;28;20390;-74
2021/11/09 10:48:33;;;;;;;28.27;9.32;;;10.30;99.90;;;;;;5027338;28;20029;-74
2021/11/09 10:51:00;;;;;;;28.67;9.23;;;10.40;99.90;;;;;;5020741;28;20065;-74
2021/11/09 10:59:09;;;;;;;26.30;11.93;;;10.50;99.90;;;;;;5025543;28;20092;-74
2021/11/09 11:04:39;;;;;;;25.90;9.73;;;10.70;99.90;;;;;;5027476;28;20463;-74
2021/11/09 11:07:10;;;;;;;33.22;9.38;;;10.70;99.90;;;;;;5029452;28;20141;-74
2021/11/09 11:09:40;;;;;;;29.38;10.32;;;10.80;99.90;;;;;;5025658;28;20424;-75
2021/11/09 11:12:13;;;;;;;36.05;11.07;;;10.80;99.90;;;;;;5025661;28;20033;-76
2021/11/09 11:14:41;;;;;;;28.08;10.18;;;10.90;99.90;;;;;;5023072;28;20393;-75
2021/11/09 11:17:13;;;;;;;31.65;9.52;;;10.90;99.90;;;;;;5022746;28;20041;-75
2021/11/09 11:19:47;;;;;;;30.27;9.40;;;11.00;99.90;;;;;;5025646;28;20029;-75
2021/11/09 11:22:28;;;;;;;27.63;9.75;;;11.00;99.90;;;;;;5029166;28;20022;-75
2021/11/09 11:24:55;;;;;;;25.48;9.02;;;11.10;99.90;;;;;;5025334;28;20079;-74
2021/11/09 11:27:23;;;;;;;19.20;8.35;;;11.10;99.90;;;;;;5012938;28;20084;-73
2021/11/09 11:29:49;;;;;;;21.88;9.40;;;11.10;99.90;;;;;;5021178;28;20021;-76
2021/11/09 11:32:18;;;;;;;29.00;9.90;;;11.20;99.90;;;;;;5027751;28;20034;-76
2021/11/09 11:34:44;;;;;;;27.17;8.57;;;11.20;99.90;;;;;;5020888;28;20021;-77
2021/11/09 11:37:12;;;;;;;28.70;9.55;;;11.20;99.90;;;;;;5018915;28;20042;-78
2021/11/09 11:39:39;;;;;;;27.73;9.65;;;11.30;99.90;;;;;;5035489;28;20099;-77
2021/11/09 11:42:08;;;;;;;32.00;9.20;;;11.30;99.90;;;;;;5035451;28;20480;-77
2021/11/09 11:44:41;;;;;;;27.70;9.82;;;11.30;99.90;;;;;;5036641;28;20029;-76
2021/11/09 11:47:19;;;;;;;24.42;8.90;;;11.40;99.90;;;;;;5037323;28;20222;-77
2021/11/09 11:49:58;;;;;;;22.77;9.35;;;11.40;99.90;;;;;;5034002;28;20032;-77
2021/11/09 11:52:33;;;;;;;27.45;9.80;;;11.50;99.90;;;;;;5031936;28;20486;-78
2021/11/09 11:55:06;;;;;;;26.75;8.98;;;11.50;99.90;;;;;;5031800;28;20120;-76
2021/11/09 11:57:41;;;;;;;22.45;9.18;;;11.50;99.90;;;;;;5028527;28;20040;-76
2021/11/09 12:00:35;;;;;;;28.63;8.68;;;11.60;99.90;;;;;;5029403;28;20509;-78
2021/11/09 12:03:18;;;;;;;23.25;9.32;;;11.60;99.90;;;;;;5030115;28;20017;-78
2021/11/09 12:05:45;;;;;;;29.63;8.75;;;11.70;99.90;;;;;;5030532;28;20040;-76
2021/11/09 12:08:37;;;;;;;24.80;8.40;;;11.70;99.90;;;;;;5031319;28;20029;-77
2021/11/09 12:11:07;;;;;;;34.83;8.85;;;11.70;99.90;;;;;;5030896;28;20022;-77
2021/11/09 12:13:52;;;;;;;20.38;8.85;;;11.70;99.90;;;;;;5031489;28;20553;-76
2021/11/09 12:16:39;;;;;;;23.52;8.65;;;11.70;99.90;;;;;;5027617;28;20057;-78
2021/11/09 12:19:04;;;;;;;16.15;7.75;;;11.70;99.90;;;;;;5030791;28;20048;-76
2021/11/09 12:21:34;;;;;;;33.35;9.02;;;11.70;99.90;;;;;;5031783;28;20541;-77
2021/11/09 12:24:10;;;;;;;20.88;8.93;;;11.70;99.90;;;;;;5031052;28;20029;-77
2021/11/09 12:26:45;;;;;;;26.52;9.98;;;11.80;99.90;;;;;;5031774;28;20065;-76
2021/11/09 12:29:35;;;;;;;23.15;7.95;;;11.90;99.90;;;;;;5032184;28;20485;-78
2021/11/09 12:32:23;;;;;;;25.48;10.05;;;11.90;99.90;;;;;;5026428;28;20044;-77
2021/11/09 12:35:08;;;;;;;27.30;8.93;;;11.90;99.90;;;;;;5031726;28;20041;-77
2021/11/09 12:37:43;;;;;;;21.17;9.45;;;12.00;99.90;;;;;;5030844;28;20461;-76
2021/11/09 12:40:31;;;;;;;23.05;8.95;;;12.00;99.90;;;;;;5031804;28;20045;-76
2021/11/09 12:43:08;;;;;;;19.75;9.52;;;12.10;99.90;;;;;;5020495;28;20033;-77
2021/11/09 12:45:36;;;;;;;29.00;9.98;;;12.20;99.90;;;;;;5030913;28;20041;-77
2021/11/09 12:48:09;;;;;;;23.05;8.73;;;12.20;99.90;;;;;;5031784;28;20026;-78
2021/11/09 12:50:36;;;;;;;18.05;8.02;;;12.30;99.90;;;;;;5031223;28;20018;-77
2021/11/09 12:53:13;;;;;;;25.35;8.80;;;12.30;99.90;;;;;;5030820;28;20060;-76
2021/11/09 12:55:40;;;;;;;21.23;8.65;;;12.40;99.90;;;;;;5031276;28;20080;-77
2021/11/09 12:58:20;;;;;;;24.70;8.85;;;12.40;99.90;;;;;;5031234;28;20029;-78
2021/11/09 13:01:04;;;;;;;26.52;7.28;;;12.30;99.90;;;;;;5035065;28;20501;-77
2021/11/09 13:03:37;;;;;;;19.70;7.75;;;12.30;99.90;;;;;;5035210;28;20108;-77
2021/11/09 13:06:17;;;;;;;22.65;8.18;;;12.30;99.90;;;;;;5034916;28;20351;-78
2021/11/09 13:09:17;;;;;;;21.30;8.63;;;12.40;99.90;;;;;;5035322;28;20032;-77
2021/11/09 13:11:48;;;;;;;21.55;8.40;;;12.30;99.90;;;;;;5034998;28;20438;-78
2021/11/09 13:14:15;;;;;;;21.13;7.85;;;12.40;99.90;;;;;;5034703;28;20033;-75
2021/11/09 13:16:47;;;;;;;18.25;7.55;;;12.40;99.90;;;;;;5034874;28;20044;-77
2021/11/09 13:19:13;;;;;;;14.00;7.63;;;12.40;99.90;;;;;;5034472;28;20025;-76
2021/11/09 13:21:40;;;;;;;27.13;7.70;;;12.50;99.90;;;;;;5035231;28;20079;-77
2021/11/09 13:24:16;;;;;;;18.58;8.13;;;12.50;99.90;;;;;;5035663;28;20025;-77
2021/11/09 13:26:54;;;;;;;15.57;7.22;;;12.40;99.90;;;;;;5034823;28;20042;-79
2021/11/09 13:29:21;;;;;;;19.23;7.15;;;12.50;99.90;;;;;;5034631;28;20025;-76
2021/11/09 13:31:50;;;;;;;22.13;6.75;;;12.50;99.90;;;;;;5033897;28;20025;-78
2021/11/09 13:34:16;;;;;;;15.43;6.93;;;12.50;99.90;;;;;;5033316;28;20388;-78
2021/11/09 13:36:42;;;;;;;14.25;6.55;;;12.40;99.90;;;;;;5033774;28;20033;-76
2021/11/09 13:39:07;;;;;;;21.20;6.43;;;12.50;99.90;;;;;;5034004;28;20022;-77
2021/11/09 13:41:33;;;;;;;14.75;6.30;;;12.50;99.90;;;;;;5032604;28;20030;-79
2021/11/09 13:44:10;;;;;;;21.85;7.35;;;13.10;99.90;;;;;;5033638;28;20025;-77
2021/11/09 13:46:39;;;;;;;14.60;7.30;;;12.50;99.90;;;;;;5032904;28;20045;-78
2021/11/09 13:49:15;;;;;;;15.50;6.88;;;12.50;99.90;;;;;;5027362;28;20033;-77
2021/11/09 13:51:58;;;;;;;18.10;6.45;;;12.50;99.90;;;;;;5030423;28;20061;-78
2021/11/09 13:54:28;;;;;;;24.27;7.97;;;12.50;99.90;;;;;;5030276;28;20557;-78
2021/11/09 13:56:55;;;;;;;14.50;6.70;;;12.40;99.90;;;;;;5028828;28;20025;-79
2021/11/09 13:59:31;;;;;;;21.95;6.20;;;12.40;99.90;;;;;;5030623;28;20064;-78
2021/11/09 14:04:52;;;;;;;22.27;6.88;;;12.40;99.90;;;;;;5024872;28;20041;-76
2021/11/09 14:10:47;;;;;;;23.42;7.35;;;12.40;99.90;;;;;;5026313;28;20022;-77
2021/11/09 14:18:22;;;;;;;21.02;7.13;;;12.30;99.90;;;;;;5028112;28;20029;-76
2021/11/09 14:21:00;;;;;;;16.10;6.07;;;12.30;99.90;;;;;;5025135;28;20029;-77
2021/11/09 14:23:28;;;;;;;19.38;7.05;;;12.30;99.90;;;;;;5029084;28;20105;-75
2021/11/09 14:25:55;;;;;;;19.83;6.93;;;12.20;99.90;;;;;;5023388;28;20025;-77
2021/11/09 14:28:38;;;;;;;20.13;7.22;;;12.20;99.90;;;;;;5029599;28;20023;-76
2021/11/09 14:31:26;;;;;;;13.05;6.40;;;12.10;99.90;;;;;;5026417;28;20028;-77
2021/11/09 14:34:08;;;;;;;25.42;7.72;;;12.10;99.90;;;;;;5029426;28;20037;-76
2021/11/09 14:36:35;;;;;;;16.95;7.35;;;12.10;99.90;;;;;;5026063;28;20032;-77
2021/11/09 14:39:24;;;;;;;18.45;7.50;;;12.10;99.90;;;;;;5027229;28;20168;-78
2021/11/09 14:42:23;;;;;;;17.42;6.50;;;12.00;99.90;;;;;;5029070;28;20041;-77
2021/11/09 14:45:06;;;;;;;20.90;6.63;;;12.00;99.90;;;;;;5025266;28;20033;-77
2021/11/09 14:47:44;;;;;;;21.42;6.57;;;12.00;99.90;;;;;;5025595;28;20033;-76
2021/11/09 14:50:23;;;;;;;18.63;7.00;;;12.00;99.90;;;;;;5025341;28;20486;-78
2021/11/09 14:52:51;;;;;;;17.58;7.30;;;11.90;99.90;;;;;;5017788;28;20017;-76
2021/11/09 14:55:29;;;;;;;20.95;7.82;;;12.00;99.90;;;;;;5028856;28;20079;-76
2021/11/09 14:57:55;;;;;;;14.40;7.38;;;12.00;99.90;;;;;;5031138;28;20095;-69
2021/11/09 15:00:21;;;;;;;19.02;7.50;;;11.90;99.90;;;;;;5032727;28;20037;-70
2021/11/09 15:02:59;;;;;;;19.73;7.78;;;11.90;99.90;;;;;;5031639;28;20067;-74
2021/11/09 15:05:25;;;;;;;23.85;6.85;;;11.90;99.90;;;;;;5032152;28;20390;-74
2021/11/09 15:12:54;;;;;;;21.58;7.72;;;11.80;99.90;;;;;;5031589;28;20029;-74
2021/11/09 15:29:38;;;;;;;19.08;7.30;;;11.70;99.90;;;;;;5033145;28;20428;-74
2021/11/09 15:32:10;;;;;;;21.50;8.35;;;11.70;99.90;;;;;;5032861;28;20056;-75
2021/11/09 15:35:24;;;;;;;31.00;9.05;;;11.60;99.90;;;;;;5031514;28;20536;-74
2021/11/09 15:37:33;;;;;;;25.88;10.32;;;11.70;99.90;;;;;;5017751;28;20041;-74
2021/11/09 15:39:59;;;;;;;35.38;9.88;;;11.70;99.90;;;;;;5031681;28;20509;-75
2021/11/09 15:42:27;;;;;;;21.88;8.40;;;11.60;99.90;;;;;;5033516;28;20113;-74
2021/11/09 15:44:54;;;;;;;25.70;9.05;;;11.60;99.90;;;;;;5032817;28;20037;-74